Time;durP1;ratioP1;P1;durP2;ratioP2;P2;SDS_P1;SDS_P2;PMS_P1;PMS_P2;Temp;Humidity;BMP_temperature;BMP_pressure;BME280_temperature;BME280_humidity;BME280_pressure;Samples;Min_cycle;Max_cycle;Signal;HPM_P1;HPM_P2
2022/10/01 00:00:16;;;;;;;5.85;4.60;;;12.40;99.90;;;;;;4959282;28;20042;-61
2022/10/01 00:02:42;;;;;;;8.45;4.72;;;12.30;99.90;;;;;;4956324;28;20031;-61
2022/10/01 00:05:10;;;;;;;8.35;4.45;;;12.30;99.90;;;;;;4959395;28;20046;-59
2022/10/01 00:07:43;;;;;;;8.40;4.10;;;12.20;99.90;;;;;;4950496;28;20043;-60
2022/10/01 00:10:10;;;;;;;7.30;4.93;;;12.20;99.90;;;;;;4957333;28;20035;-59
2022/10/01 00:12:38;;;;;;;11.48;4.85;;;12.10;99.90;;;;;;4956624;28;20063;-60
2022/10/01 00:15:08;;;;;;;6.63;4.75;;;12.10;99.90;;;;;;4959193;28;20691;-60
2022/10/01 00:17:37;;;;;;;8.85;5.20;;;12.20;99.90;;;;;;4952780;28;20046;-60
2022/10/01 00:20:04;;;;;;;5.72;4.40;;;12.10;99.90;;;;;;4956221;28;20137;-60
2022/10/01 00:22:31;;;;;;;7.28;4.90;;;12.10;99.90;;;;;;4958087;28;20043;-60
2022/10/01 00:24:58;;;;;;;5.90;4.68;;;12.10;99.90;;;;;;4953432;28;20039;-60
2022/10/01 00:27:24;;;;;;;10.48;5.25;;;12.20;99.90;;;;;;4954722;28;20129;-60
2022/10/01 00:29:50;;;;;;;8.75;5.32;;;12.20;99.90;;;;;;4957946;28;20271;-60
2022/10/01 00:32:16;;;;;;;8.27;5.47;;;12.00;99.90;;;;;;4959496;28;20080;-60
2022/10/01 00:34:42;;;;;;;9.13;5.57;;;12.00;99.90;;;;;;4955451;28;20118;-60
2022/10/01 00:37:09;;;;;;;7.35;4.85;;;11.90;99.90;;;;;;4954879;28;20149;-60
2022/10/01 00:39:35;;;;;;;8.30;5.22;;;11.80;99.90;;;;;;4955460;28;20031;-60
2022/10/01 00:42:01;;;;;;;8.98;5.10;;;11.80;99.90;;;;;;4960512;28;20078;-61
2022/10/01 00:44:34;;;;;;;6.10;5.05;;;11.70;99.90;;;;;;4950480;28;20114;-60
2022/10/01 00:47:36;;;;;;;5.43;4.90;;;11.80;99.90;;;;;;4953577;28;20070;-60
2022/10/01 00:50:30;;;;;;;7.13;5.55;;;11.70;99.90;;;;;;4956375;28;20479;-60
2022/10/01 00:53:12;;;;;;;5.72;4.97;;;11.70;99.90;;;;;;4955557;28;20039;-60
2022/10/01 00:55:42;;;;;;;6.60;5.20;;;11.70;99.90;;;;;;4953898;28;20062;-60
2022/10/01 00:58:11;;;;;;;7.63;5.65;;;11.70;99.90;;;;;;4953699;28;20065;-60
2022/10/01 01:00:39;;;;;;;7.90;4.97;;;11.70;99.90;;;;;;4957430;28;20037;-61
2022/10/01 01:03:05;;;;;;;7.57;5.13;;;11.60;99.90;;;;;;4955423;28;20134;-60
2022/10/01 01:05:31;;;;;;;6.95;4.65;;;11.60;99.90;;;;;;4956050;28;20038;-60
2022/10/01 01:08:00;;;;;;;8.43;4.80;;;11.60;99.90;;;;;;4952819;28;20047;-59
2022/10/01 01:10:51;;;;;;;5.95;4.68;;;11.70;99.90;;;;;;4960014;28;20121;-60
2022/10/01 01:13:36;;;;;;;6.13;4.95;;;11.60;99.90;;;;;;4950750;28;20153;-60
2022/10/01 01:16:11;;;;;;;10.05;4.47;;;11.50;99.90;;;;;;4956449;28;20039;-60
2022/10/01 01:18:59;;;;;;;7.13;4.82;;;11.50;99.90;;;;;;4962860;28;20034;-60
2022/10/01 01:21:33;;;;;;;7.45;5.25;;;11.60;99.90;;;;;;4956937;28;20440;-60
2022/10/01 01:24:12;;;;;;;5.60;4.65;;;11.50;99.90;;;;;;4950170;28;20122;-59
2022/10/01 01:26:49;;;;;;;6.20;4.85;;;11.50;99.90;;;;;;4954312;28;20109;-60
2022/10/01 01:29:24;;;;;;;8.40;4.90;;;11.60;99.90;;;;;;4958209;28;20085;-60
2022/10/01 01:31:51;;;;;;;6.55;5.25;;;11.70;99.90;;;;;;4958243;28;20027;-60
2022/10/01 01:34:27;;;;;;;6.97;5.15;;;11.60;99.90;;;;;;4957115;28;20534;-60
2022/10/01 01:37:02;;;;;;;7.75;5.45;;;11.60;99.90;;;;;;4958153;28;20035;-60
2022/10/01 01:39:30;;;;;;;8.88;5.95;;;11.50;99.90;;;;;;4956958;28;20049;-60
2022/10/01 01:42:01;;;;;;;8.43;5.18;;;11.60;99.90;;;;;;4957288;28;20124;-59
2022/10/01 01:44:32;;;;;;;5.75;4.75;;;11.60;99.90;;;;;;4962997;28;20041;-60
2022/10/01 01:47:00;;;;;;;6.22;4.95;;;11.50;99.90;;;;;;4961968;28;20039;-60
2022/10/01 01:49:26;;;;;;;7.25;5.47;;;11.60;99.90;;;;;;4960392;28;20049;-60
2022/10/01 01:51:58;;;;;;;6.20;5.00;;;11.50;99.90;;;;;;4952368;28;20410;-61
2022/10/01 01:54:24;;;;;;;6.65;5.00;;;11.60;99.90;;;;;;4957501;28;20467;-60
2022/10/01 01:56:50;;;;;;;6.50;5.30;;;11.50;99.90;;;;;;4954870;28;20043;-60
2022/10/01 01:59:18;;;;;;;8.88;5.30;;;11.60;99.90;;;;;;4952019;28;20058;-61
2022/10/01 02:01:44;;;;;;;7.68;4.78;;;11.50;99.90;;;;;;4958196;28;20110;-61
2022/10/01 02:04:24;;;;;;;5.75;4.65;;;11.60;99.90;;;;;;4958668;28;20443;-61
2022/10/01 02:07:31;;;;;;;7.60;5.15;;;11.50;99.90;;;;;;4957893;28;20066;-61
2022/10/01 02:10:18;;;;;;;5.40;4.57;;;11.60;99.90;;;;;;4957507;28;20030;-61
2022/10/01 02:13:15;;;;;;;7.50;5.07;;;11.70;99.90;;;;;;4959413;28;20035;-61
2022/10/01 02:15:58;;;;;;;6.82;4.88;;;11.70;99.90;;;;;;4946416;28;20031;-61
2022/10/01 02:18:29;;;;;;;7.15;5.18;;;11.60;99.90;;;;;;4960077;28;20049;-61
2022/10/01 02:21:13;;;;;;;6.57;4.80;;;11.50;99.90;;;;;;4957845;28;20526;-60
2022/10/01 02:23:59;;;;;;;6.05;5.43;;;11.50;99.90;;;;;;4957520;28;20045;-61
2022/10/01 02:26:27;;;;;;;7.15;5.45;;;11.40;99.90;;;;;;4964009;28;20069;-61
2022/10/01 02:28:57;;;;;;;6.18;5.22;;;11.50;99.90;;;;;;4963688;28;20026;-61
2022/10/01 02:31:23;;;;;;;8.73;5.60;;;11.40;99.90;;;;;;4959152;28;20051;-60
2022/10/01 02:33:51;;;;;;;9.05;6.13;;;11.40;99.90;;;;;;4955369;28;20042;-60
2022/10/01 02:36:19;;;;;;;8.95;5.50;;;11.40;99.90;;;;;;4961946;28;20046;-60
2022/10/01 02:38:49;;;;;;;8.07;5.60;;;11.40;99.90;;;;;;4961217;28;20368;-61
2022/10/01 02:41:19;;;;;;;7.03;5.78;;;11.40;99.90;;;;;;4956894;28;20038;-60
2022/10/01 02:44:22;;;;;;;6.35;5.60;;;11.30;99.90;;;;;;4955802;28;20106;-60
2022/10/01 02:47:18;;;;;;;11.15;6.32;;;11.30;99.90;;;;;;4944495;28;20046;-61
2022/10/01 02:49:46;;;;;;;6.50;5.80;;;11.30;99.90;;;;;;4953120;28;20035;-60
2022/10/01 02:52:31;;;;;;;7.45;5.75;;;11.30;99.90;;;;;;4957134;28;20035;-61
2022/10/01 02:55:06;;;;;;;7.63;5.70;;;11.30;99.90;;;;;;4957072;28;20986;-60
2022/10/01 02:57:31;;;;;;;8.77;5.68;;;11.30;99.90;;;;;;4960973;28;20051;-61
2022/10/01 03:00:06;;;;;;;6.40;5.47;;;11.40;99.90;;;;;;4957796;28;20062;-59
2022/10/01 03:02:32;;;;;;;7.53;5.30;;;11.40;99.90;;;;;;4956255;28;20043;-60
2022/10/01 03:04:58;;;;;;;7.82;5.45;;;11.50;99.90;;;;;;4960839;28;20043;-60
2022/10/01 03:07:25;;;;;;;6.65;5.15;;;11.50;99.90;;;;;;4960076;28;20046;-60
2022/10/01 03:09:51;;;;;;;8.43;5.57;;;11.40;99.90;;;;;;4961083;28;20122;-60
2022/10/01 03:12:17;;;;;;;6.97;5.75;;;11.40;99.90;;;;;;4960036;28;20489;-60
2022/10/01 03:14:44;;;;;;;6.32;5.53;;;11.50;99.90;;;;;;4955624;28;20396;-60
2022/10/01 03:17:10;;;;;;;6.47;5.22;;;11.60;99.90;;;;;;4957097;28;20286;-60
2022/10/01 03:19:36;;;;;;;7.43;5.15;;;11.50;99.90;;;;;;4960251;28;20043;-60
2022/10/01 03:22:02;;;;;;;8.25;4.70;;;11.60;99.90;;;;;;4955659;28;20100;-60
2022/10/01 03:24:28;;;;;;;7.18;5.05;;;11.60;99.90;;;;;;4954375;28;20364;-60
2022/10/01 03:26:57;;;;;;;8.55;5.03;;;11.60;99.90;;;;;;4961418;28;20157;-60
2022/10/01 03:29:23;;;;;;;5.97;4.38;;;11.60;99.90;;;;;;4956832;28;20065;-60
2022/10/01 03:31:49;;;;;;;6.15;4.20;;;11.70;99.90;;;;;;4959301;28;20035;-60
2022/10/01 03:34:14;;;;;;;5.20;4.30;;;11.70;99.90;;;;;;4955428;28;20038;-60
2022/10/01 03:36:40;;;;;;;6.35;4.32;;;11.80;99.90;;;;;;4953469;28;20035;-61
2022/10/01 03:39:06;;;;;;;6.10;4.72;;;11.80;99.90;;;;;;4953647;28;20423;-60
2022/10/01 03:41:32;;;;;;;7.50;4.60;;;11.80;99.90;;;;;;4955023;28;20130;-60
2022/10/01 03:43:58;;;;;;;7.85;4.68;;;11.80;99.90;;;;;;4951750;28;20077;-60
2022/10/01 03:46:23;;;;;;;5.93;4.80;;;11.70;99.90;;;;;;4957284;28;20046;-60
2022/10/01 03:48:49;;;;;;;6.03;4.97;;;11.70;99.90;;;;;;4951604;28;20032;-60
2022/10/01 03:51:15;;;;;;;8.57;5.88;;;11.60;99.90;;;;;;4954032;28;20114;-60
2022/10/01 03:53:40;;;;;;;9.55;6.70;;;11.60;99.90;;;;;;4948430;28;20047;-59
2022/10/01 03:56:06;;;;;;;11.18;7.35;;;11.60;99.90;;;;;;4955333;28;21412;-59
2022/10/01 03:58:31;;;;;;;10.50;7.32;;;11.60;99.90;;;;;;4962389;28;20042;-59
2022/10/01 04:00:59;;;;;;;9.32;6.80;;;11.50;99.90;;;;;;4959437;28;20042;-59
2022/10/01 04:03:24;;;;;;;6.82;5.93;;;11.40;99.90;;;;;;4954131;28;20074;-59
2022/10/01 04:05:50;;;;;;;6.72;5.30;;;11.30;99.90;;;;;;4951035;28;20071;-59
2022/10/01 04:08:16;;;;;;;6.38;5.07;;;11.30;99.90;;;;;;4956336;28;20046;-59
2022/10/01 04:10:42;;;;;;;9.45;5.05;;;11.30;99.90;;;;;;4955089;28;20258;-60
2022/10/01 04:13:07;;;;;;;5.53;4.47;;;11.40;99.90;;;;;;4953491;28;20050;-59
2022/10/01 04:15:33;;;;;;;6.80;4.38;;;11.40;99.90;;;;;;4956994;28;20031;-59
2022/10/01 04:18:00;;;;;;;6.60;4.43;;;11.50;99.90;;;;;;4957550;28;20043;-59
2022/10/01 04:20:26;;;;;;;5.57;4.18;;;11.60;99.90;;;;;;4953209;28;20039;-59
2022/10/01 04:22:51;;;;;;;4.95;3.78;;;11.70;99.90;;;;;;4954391;28;20043;-59
2022/10/01 04:25:17;;;;;;;5.13;4.00;;;11.70;99.90;;;;;;4956376;28;20146;-59
2022/10/01 04:27:55;;;;;;;5.97;3.72;;;11.70;99.90;;;;;;4959115;28;20039;-59
2022/10/01 04:30:20;;;;;;;4.82;2.63;;;11.70;99.90;;;;;;4953679;28;20086;-59
2022/10/01 04:32:46;;;;;;;4.72;2.38;;;11.60;99.90;;;;;;4959703;28;20501;-59
2022/10/01 04:35:12;;;;;;;2.17;1.80;;;11.70;99.90;;;;;;4954391;28;20141;-59
2022/10/01 04:37:37;;;;;;;2.05;1.70;;;11.60;99.90;;;;;;4963853;28;20458;-59
2022/10/01 04:40:04;;;;;;;3.33;1.50;;;11.60;99.90;;;;;;4959813;28;20031;-59
2022/10/01 04:42:30;;;;;;;2.72;1.58;;;11.60;99.90;;;;;;4953733;28;20476;-59
2022/10/01 04:44:56;;;;;;;1.58;1.30;;;11.70;99.90;;;;;;4962546;28;20238;-59
2022/10/01 04:47:22;;;;;;;2.05;1.10;;;11.70;99.90;;;;;;4956900;28;20050;-59
2022/10/01 04:49:48;;;;;;;3.20;1.05;;;11.70;99.90;;;;;;4958712;28;20745;-59
2022/10/01 04:52:14;;;;;;;2.25;1.02;;;11.70;99.90;;;;;;4953231;28;20039;-59
2022/10/01 04:54:39;;;;;;;2.47;0.80;;;11.60;99.90;;;;;;4951768;28;20046;-59
2022/10/01 04:57:05;;;;;;;2.78;0.73;;;11.60;99.90;;;;;;4955009;28;20073;-59
2022/10/01 04:59:31;;;;;;;2.40;0.80;;;11.60;99.90;;;;;;4961815;28;20049;-59
2022/10/01 05:01:57;;;;;;;0.82;0.80;;;11.70;99.90;;;;;;4961579;28;20086;-59
2022/10/01 05:04:22;;;;;;;0.77;0.73;;;11.70;99.90;;;;;;4960110;28;20149;-60
2022/10/01 05:06:48;;;;;;;1.27;0.80;;;11.90;99.90;;;;;;4954900;28;20039;-60
2022/10/01 05:09:14;;;;;;;1.08;0.90;;;11.80;99.90;;;;;;4960221;28;20037;-60
2022/10/01 05:11:39;;;;;;;1.25;0.85;;;11.90;99.90;;;;;;4961896;28;20042;-60
2022/10/01 05:14:05;;;;;;;0.60;0.60;;;12.00;99.90;;;;;;4958759;28;20158;-60
2022/10/01 05:16:30;;;;;;;1.38;0.68;;;11.90;99.90;;;;;;4958795;28;20560;-60
2022/10/01 05:18:56;;;;;;;1.08;0.70;;;12.00;99.90;;;;;;4956027;28;20028;-58
2022/10/01 05:21:22;;;;;;;0.98;0.80;;;12.10;99.90;;;;;;4959131;28;20042;-60
2022/10/01 05:23:47;;;;;;;2.38;0.73;;;12.10;99.90;;;;;;4956891;28;20058;-60
2022/10/01 05:26:13;;;;;;;0.60;0.60;;;12.10;99.90;;;;;;4960243;28;20047;-60
2022/10/01 05:28:43;;;;;;;2.25;0.70;;;12.20;99.90;;;;;;4962507;28;20738;-60
2022/10/01 05:31:10;;;;;;;0.60;0.55;;;12.20;99.90;;;;;;4959537;28;20085;-60
2022/10/01 05:33:36;;;;;;;0.70;0.50;;;12.20;99.90;;;;;;4961847;28;20029;-60
2022/10/01 05:36:05;;;;;;;1.67;0.75;;;12.20;99.90;;;;;;4955618;28;20035;-60
2022/10/01 05:38:35;;;;;;;1.42;0.80;;;12.20;99.90;;;;;;4955222;28;20095;-60
2022/10/01 05:41:00;;;;;;;1.13;0.60;;;12.30;99.90;;;;;;4961644;28;20062;-60
2022/10/01 05:43:26;;;;;;;2.30;0.60;;;12.40;99.90;;;;;;4955612;28;20051;-59
2022/10/01 05:45:51;;;;;;;0.85;0.60;;;12.40;99.90;;;;;;4958473;28;20039;-61
2022/10/01 05:48:17;;;;;;;2.25;0.70;;;12.60;99.90;;;;;;4964102;28;20054;-60
2022/10/01 05:50:43;;;;;;;2.75;0.60;;;12.60;99.90;;;;;;4956505;28;20130;-60
2022/10/01 05:53:10;;;;;;;0.40;0.40;;;12.50;99.90;;;;;;4957721;28;20047;-60
2022/10/01 05:55:36;;;;;;;1.50;0.60;;;12.50;99.90;;;;;;4954615;28;20446;-60
2022/10/01 05:58:11;;;;;;;0.40;0.40;;;12.50;99.90;;;;;;4956199;28;20062;-59
2022/10/01 06:00:38;;;;;;;1.70;0.60;;;12.40;99.90;;;;;;4960635;28;20162;-60
2022/10/01 06:03:04;;;;;;;0.60;0.60;;;12.50;99.90;;;;;;4959891;28;20522;-60
2022/10/01 06:05:31;;;;;;;1.77;0.52;;;12.50;99.90;;;;;;4961871;28;20635;-60
2022/10/01 06:07:57;;;;;;;0.50;0.50;;;12.60;99.90;;;;;;4957446;28;20142;-60
2022/10/01 06:10:24;;;;;;;2.05;0.70;;;12.60;99.90;;;;;;4966475;28;20461;-60
2022/10/01 06:12:50;;;;;;;3.03;0.60;;;12.60;99.90;;;;;;4960890;28;20038;-59
2022/10/01 06:15:16;;;;;;;1.35;0.50;;;12.70;99.90;;;;;;4960873;28;20132;-59
2022/10/01 06:17:43;;;;;;;1.38;0.50;;;12.90;99.90;;;;;;4957623;28;20050;-59
2022/10/01 06:20:11;;;;;;;0.60;0.60;;;12.80;99.90;;;;;;4958925;28;20359;-59
2022/10/01 06:22:37;;;;;;;2.65;0.60;;;12.80;99.90;;;;;;4959977;28;20058;-59
2022/10/01 06:25:04;;;;;;;1.02;0.60;;;13.00;99.90;;;;;;4959280;28;20042;-60
2022/10/01 06:27:30;;;;;;;2.17;0.47;;;13.00;99.90;;;;;;4956467;28;20042;-59
2022/10/01 06:29:55;;;;;;;0.60;0.50;;;13.00;99.90;;;;;;4957248;28;20116;-57
2022/10/01 06:32:21;;;;;;;1.42;0.80;;;12.90;99.90;;;;;;4957170;28;20056;-58
2022/10/01 06:34:47;;;;;;;0.60;0.60;;;12.90;99.90;;;;;;4956518;28;20035;-58
2022/10/01 06:37:12;;;;;;;0.88;0.70;;;13.00;99.90;;;;;;4955524;28;20030;-58
2022/10/01 06:39:38;;;;;;;3.03;0.75;;;13.10;99.90;;;;;;4962921;28;20041;-58
2022/10/01 06:42:03;;;;;;;2.38;0.50;;;13.10;99.90;;;;;;4961100;28;20141;-57
2022/10/01 06:44:29;;;;;;;1.38;1.02;;;13.00;99.90;;;;;;4964346;28;20047;-58
2022/10/01 06:46:54;;;;;;;8.35;0.98;;;12.90;99.90;;;;;;4959434;28;20512;-57
2022/10/01 06:49:21;;;;;;;2.50;0.73;;;12.80;99.90;;;;;;4962705;28;20467;-59
2022/10/01 06:54:31;;;;;;;2.13;1.15;;;12.80;99.90;;;;;;4952408;28;20049;-59
2022/10/01 06:56:56;;;;;;;2.65;0.90;;;12.80;99.90;;;;;;4954284;28;20287;-58
2022/10/01 06:59:22;;;;;;;0.70;0.70;;;12.90;99.90;;;;;;4959228;28;20574;-59
2022/10/01 07:01:52;;;;;;;1.48;0.80;;;13.00;99.90;;;;;;4958987;28;20089;-58
2022/10/01 07:04:21;;;;;;;2.60;0.82;;;13.00;99.90;;;;;;4958116;28;20043;-59
2022/10/01 07:06:46;;;;;;;1.38;0.88;;;13.00;99.90;;;;;;4949931;28;20047;-59
2022/10/01 07:09:12;;;;;;;4.13;1.30;;;12.90;99.90;;;;;;4956855;28;20031;-59
2022/10/01 07:11:41;;;;;;;1.42;0.70;;;12.90;99.90;;;;;;4961199;28;20050;-58
2022/10/01 07:14:07;;;;;;;9.80;1.20;;;13.00;99.90;;;;;;4958155;28;20589;-59
2022/10/01 07:16:33;;;;;;;1.42;0.90;;;12.90;99.90;;;;;;4958071;28;20058;-59
2022/10/01 07:18:59;;;;;;;3.95;0.90;;;12.90;99.90;;;;;;4954275;28;20153;-59
2022/10/01 07:21:24;;;;;;;2.42;1.05;;;13.00;99.90;;;;;;4956732;28;20070;-59
2022/10/01 07:23:50;;;;;;;2.30;0.93;;;13.00;99.90;;;;;;4957240;28;20043;-58
2022/10/01 07:26:16;;;;;;;1.23;1.10;;;13.00;99.90;;;;;;4958159;28;20659;-58
2022/10/01 07:28:43;;;;;;;3.92;1.10;;;13.00;99.90;;;;;;4954555;28;20135;-58
2022/10/01 07:31:10;;;;;;;3.15;1.13;;;13.10;99.90;;;;;;4951970;28;20344;-58
2022/10/01 07:33:36;;;;;;;1.92;1.13;;;13.10;99.90;;;;;;4947547;28;20041;-58
2022/10/01 07:36:04;;;;;;;3.85;1.00;;;13.20;99.90;;;;;;4947124;28;20348;-57
2022/10/01 07:38:32;;;;;;;3.75;1.15;;;13.20;99.90;;;;;;4950744;28;20568;-58
2022/10/01 07:40:58;;;;;;;1.92;1.20;;;13.30;99.90;;;;;;4951400;28;20363;-58
2022/10/01 07:43:23;;;;;;;5.82;1.50;;;13.30;99.90;;;;;;4955806;28;20031;-58
2022/10/01 07:45:51;;;;;;;2.67;1.40;;;13.40;99.90;;;;;;4950983;28;20142;-59
2022/10/01 07:48:18;;;;;;;1.73;1.33;;;13.50;99.90;;;;;;4947610;28;20126;-57
2022/10/01 07:50:44;;;;;;;2.58;1.45;;;13.60;99.90;;;;;;4949603;28;20605;-58
2022/10/01 07:53:10;;;;;;;4.30;1.50;;;13.60;99.90;;;;;;4956969;28;20043;-58
2022/10/01 07:55:36;;;;;;;3.33;1.70;;;13.70;99.90;;;;;;4960429;28;20034;-57
2022/10/01 07:58:02;;;;;;;3.28;1.73;;;13.60;99.90;;;;;;4953919;28;20728;-57
2022/10/01 08:00:30;;;;;;;4.25;1.83;;;13.80;99.90;;;;;;4954351;28;20046;-58
2022/10/01 08:02:55;;;;;;;4.18;1.80;;;13.70;99.90;;;;;;4954038;28;20464;-58
2022/10/01 08:05:24;;;;;;;8.98;2.22;;;13.80;99.90;;;;;;4953987;28;20041;-58
2022/10/01 08:07:49;;;;;;;4.07;2.00;;;13.80;99.90;;;;;;4953862;28;20415;-57
2022/10/01 08:10:17;;;;;;;4.60;2.00;;;13.90;99.90;;;;;;4954436;28;20038;-57
2022/10/01 08:12:43;;;;;;;2.70;1.88;;;13.90;99.90;;;;;;4946884;28;20113;-58
2022/10/01 08:15:14;;;;;;;3.55;2.08;;;14.00;99.90;;;;;;4953390;28;20701;-56
2022/10/01 08:17:40;;;;;;;5.80;2.20;;;14.00;99.90;;;;;;4957285;28;20542;-59
2022/10/01 08:20:08;;;;;;;5.00;3.13;;;14.10;99.90;;;;;;4959973;28;20077;-57
2022/10/01 08:22:33;;;;;;;2.50;2.28;;;14.30;99.90;;;;;;4953688;28;20044;-57
2022/10/01 08:24:59;;;;;;;8.88;2.40;;;14.40;99.90;;;;;;4953786;28;20031;-57
2022/10/01 08:27:25;;;;;;;3.70;2.00;;;14.40;99.90;;;;;;4960606;28;20157;-57
2022/10/01 08:29:52;;;;;;;3.35;2.20;;;14.40;99.90;;;;;;4956164;28;20533;-57
2022/10/01 08:32:18;;;;;;;4.07;2.20;;;14.40;99.90;;;;;;4960030;28;20099;-57
2022/10/01 08:34:43;;;;;;;5.15;2.63;;;14.50;99.90;;;;;;4959479;28;20043;-58
2022/10/01 08:37:09;;;;;;;5.50;2.83;;;14.50;99.90;;;;;;4950887;28;20675;-56
2022/10/01 08:39:35;;;;;;;7.47;3.40;;;14.50;99.90;;;;;;4956906;28;20031;-58
2022/10/01 08:42:15;;;;;;;4.07;3.15;;;14.40;99.90;;;;;;4956739;28;20027;-57
2022/10/01 08:44:44;;;;;;;5.13;3.33;;;14.40;99.90;;;;;;4949822;28;20713;-57
2022/10/01 08:47:29;;;;;;;4.70;2.85;;;14.40;99.90;;;;;;4955958;28;20654;-55
2022/10/01 08:49:59;;;;;;;4.15;3.40;;;14.50;99.90;;;;;;4951279;28;20045;-57
2022/10/01 08:52:32;;;;;;;5.55;3.67;;;14.40;99.90;;;;;;4949244;28;20056;-57
2022/10/01 08:55:10;;;;;;;9.35;3.42;;;14.40;99.90;;;;;;4954166;28;20102;-57
2022/10/01 08:57:45;;;;;;;7.93;4.10;;;14.50;99.90;;;;;;4952699;28;20568;-58
2022/10/01 09:00:15;;;;;;;6.57;3.65;;;14.50;99.90;;;;;;4952864;28;20672;-57
2022/10/01 09:02:42;;;;;;;7.82;3.65;;;14.60;99.90;;;;;;4960181;28;20514;-56
2022/10/01 09:05:30;;;;;;;7.60;3.95;;;14.60;99.90;;;;;;4952016;28;20102;-58
2022/10/01 09:08:42;;;;;;;6.38;3.85;;;14.50;99.90;;;;;;4955983;28;20038;-55
2022/10/01 09:11:30;;;;;;;8.13;4.05;;;14.50;99.90;;;;;;4952682;28;20051;-57
2022/10/01 09:14:02;;;;;;;6.97;3.63;;;14.60;99.90;;;;;;4961005;28;20046;-58
2022/10/01 09:16:41;;;;;;;6.68;3.47;;;14.60;99.90;;;;;;4954412;28;20318;-59
2022/10/01 09:19:24;;;;;;;7.15;3.60;;;14.60;99.90;;;;;;4958502;28;20045;-59
2022/10/01 09:22:06;;;;;;;5.50;4.40;;;14.60;99.90;;;;;;4951901;28;20526;-58
2022/10/01 09:24:53;;;;;;;7.47;3.72;;;14.60;99.90;;;;;;4951876;28;20378;-58
2022/10/01 09:27:28;;;;;;;5.47;3.70;;;14.60;99.90;;;;;;4956721;28;20565;-58
2022/10/01 09:30:10;;;;;;;4.97;3.70;;;14.60;99.90;;;;;;4957810;28;20399;-58
2022/10/01 09:32:58;;;;;;;10.52;4.53;;;14.60;99.90;;;;;;4952791;28;20467;-58
2022/10/01 09:35:43;;;;;;;6.43;3.65;;;14.60;99.90;;;;;;4951348;28;20043;-59
2022/10/01 09:38:39;;;;;;;8.32;4.10;;;14.50;99.90;;;;;;4958998;28;20035;-58
2022/10/01 09:41:06;;;;;;;5.47;3.85;;;14.60;99.90;;;;;;4957339;28;20249;-59
2022/10/01 09:43:33;;;;;;;5.10;3.45;;;14.70;99.90;;;;;;4958295;28;20038;-58
2022/10/01 09:45:59;;;;;;;4.70;3.13;;;14.80;99.90;;;;;;4958423;28;20034;-59
2022/10/01 09:48:39;;;;;;;6.72;3.67;;;14.80;99.90;;;;;;4956366;28;20443;-58
2022/10/01 09:51:26;;;;;;;4.68;3.25;;;14.80;99.90;;;;;;4956634;28;20565;-58
2022/10/01 09:54:03;;;;;;;5.07;3.78;;;14.90;99.90;;;;;;4953399;28;20045;-58
2022/10/01 09:56:36;;;;;;;9.38;3.92;;;15.00;99.90;;;;;;4959669;28;20411;-57
2022/10/01 09:59:09;;;;;;;4.63;3.30;;;15.00;99.90;;;;;;4960721;28;20050;-58
2022/10/01 10:01:43;;;;;;;4.35;2.97;;;15.00;99.90;;;;;;4964061;28;20038;-57
2022/10/01 10:04:09;;;;;;;;;;;15.00;99.90;;;;;;4962616;28;20039;-59
2022/10/01 10:06:34;;;;;;;5.38;2.90;;;15.10;99.90;;;;;;4960949;28;19926;-58
2022/10/01 10:09:00;;;;;;;9.40;2.63;;;15.00;99.90;;;;;;4959864;28;20046;-58
2022/10/01 10:11:31;;;;;;;5.07;2.63;;;15.10;99.90;;;;;;4955048;28;20038;-57
2022/10/01 10:14:02;;;;;;;5.47;2.58;;;15.10;99.90;;;;;;4962794;28;20451;-58
2022/10/01 10:16:31;;;;;;;6.22;2.67;;;15.10;99.90;;;;;;4961336;28;20138;-58
2022/10/01 10:19:05;;;;;;;4.93;2.83;;;15.10;99.90;;;;;;4954709;28;20130;-58
2022/10/01 10:21:33;;;;;;;4.80;2.47;;;15.20;99.90;;;;;;4957199;28;20267;-58
2022/10/01 10:24:26;;;;;;;10.38;3.00;;;15.20;99.90;;;;;;4955798;28;20032;-58
2022/10/01 10:26:55;;;;;;;7.25;2.60;;;15.10;99.90;;;;;;4956627;28;20550;-59
2022/10/01 10:29:29;;;;;;;9.65;2.92;;;15.00;99.90;;;;;;4959144;28;20041;-58
2022/10/01 10:31:56;;;;;;;8.43;3.05;;;15.00;99.90;;;;;;4956084;28;20031;-59
2022/10/01 10:34:45;;;;;;;11.45;4.00;;;14.90;99.90;;;;;;4963280;28;20556;-57
2022/10/01 10:37:18;;;;;;;11.43;4.18;;;15.00;99.90;;;;;;4964536;28;20185;-59
2022/10/01 10:39:52;;;;;;;10.18;4.63;;;15.00;99.90;;;;;;4953722;28;20129;-59
2022/10/01 10:42:21;;;;;;;10.95;4.18;;;15.10;99.90;;;;;;4958089;28;20093;-58
2022/10/01 10:44:48;;;;;;;13.60;6.25;;;15.10;99.90;;;;;;4961377;28;20082;-58
2022/10/01 10:47:16;;;;;;;12.35;5.20;;;15.20;99.90;;;;;;4954695;28;20125;-59
2022/10/01 10:49:55;;;;;;;14.70;5.63;;;15.30;99.90;;;;;;4954401;28;20057;-58
2022/10/01 10:52:28;;;;;;;17.88;5.80;;;15.30;99.90;;;;;;4954629;28;20308;-58
2022/10/01 10:54:55;;;;;;;13.45;5.88;;;15.40;99.90;;;;;;4951846;28;20031;-59
2022/10/01 10:57:28;;;;;;;18.05;6.22;;;15.50;99.90;;;;;;4962475;28;20027;-58
2022/10/01 10:59:55;;;;;;;10.93;4.97;;;15.60;99.90;;;;;;4958781;28;20454;-58
2022/10/01 11:02:24;;;;;;;11.75;5.28;;;15.70;99.90;;;;;;4955551;28;20114;-58
2022/10/01 11:04:52;;;;;;;15.95;4.90;;;15.80;99.90;;;;;;4954193;28;20059;-58
2022/10/01 11:07:21;;;;;;;14.38;5.05;;;15.90;99.90;;;;;;4953959;28;20043;-58
2022/10/01 11:10:02;;;;;;;10.57;5.18;;;15.90;99.90;;;;;;4952328;28;20556;-59
2022/10/01 11:12:50;;;;;;;16.00;5.00;;;16.10;99.90;;;;;;4959110;28;20051;-59
2022/10/01 11:15:44;;;;;;;9.98;4.20;;;16.30;99.90;;;;;;4959391;28;20490;-58
2022/10/01 11:18:27;;;;;;;10.00;3.80;;;16.30;99.90;;;;;;4959842;28;20035;-59
2022/10/01 11:21:27;;;;;;;10.35;4.32;;;16.20;99.90;;;;;;4956829;28;20546;-58
2022/10/01 11:24:06;;;;;;;10.65;4.30;;;16.20;99.90;;;;;;4959431;28;20026;-58
2022/10/01 11:26:51;;;;;;;15.07;4.65;;;16.30;99.90;;;;;;4956556;28;20058;-59
2022/10/01 11:29:38;;;;;;;12.73;4.78;;;16.40;99.90;;;;;;4959803;28;20213;-57
2022/10/01 11:32:18;;;;;;;13.48;5.22;;;16.50;99.90;;;;;;4957963;28;20043;-58
2022/10/01 11:35:11;;;;;;;15.30;5.60;;;16.70;99.90;;;;;;4957581;28;20687;-59
2022/10/01 11:38:12;;;;;;;7.77;3.93;;;16.80;99.90;;;;;;4957654;28;20027;-59
2022/10/01 11:40:53;;;;;;;7.55;3.13;;;16.90;99.90;;;;;;4955933;28;20042;-58
2022/10/01 11:43:36;;;;;;;11.05;3.05;;;17.10;99.90;;;;;;4957137;28;20789;-58
2022/10/01 11:46:14;;;;;;;11.07;3.83;;;16.80;99.90;;;;;;4962167;28;20097;-59
2022/10/01 11:48:51;;;;;;;12.02;3.22;;;16.90;99.90;;;;;;4954039;28;20576;-58
2022/10/01 11:51:26;;;;;;;11.48;3.17;;;17.00;99.90;;;;;;4949574;28;20530;-58
2022/10/01 11:53:59;;;;;;;10.82;3.50;;;16.90;99.90;;;;;;4954239;28;20081;-58
2022/10/01 11:59:35;;;;;;;11.73;4.30;;;16.90;99.90;;;;;;4952805;28;20442;-58
2022/10/01 12:02:34;;;;;;;10.02;2.60;;;16.90;99.90;;;;;;4957770;28;20114;-58
2022/10/01 12:05:08;;;;;;;10.15;2.60;;;16.70;99.90;;;;;;4954931;28;20041;-59
2022/10/01 12:08:02;;;;;;;9.50;2.55;;;16.70;99.90;;;;;;4959962;28;20515;-58
2022/10/01 12:10:33;;;;;;;;;;;16.70;99.90;;;;;;4958698;28;20515;-58
2022/10/01 12:13:21;;;;;;;13.13;2.58;;;16.50;99.90;;;;;;4963664;28;19914;-59
2022/10/01 12:15:50;;;;;;;10.27;2.40;;;16.50;99.90;;;;;;4956711;28;20678;-60
2022/10/01 12:18:38;;;;;;;14.35;2.20;;;16.30;99.90;;;;;;4960964;28;20534;-57
2022/10/01 12:21:11;;;;;;;14.60;2.47;;;16.30;99.90;;;;;;4961509;28;20177;-59
2022/10/01 12:23:47;;;;;;;11.73;2.33;;;16.40;99.90;;;;;;4957860;28;20034;-58
2022/10/01 12:26:37;;;;;;;10.55;2.22;;;16.40;99.90;;;;;;4955546;28;20034;-57
2022/10/01 12:29:36;;;;;;;12.57;2.60;;;16.40;99.90;;;;;;4959688;28;20058;-58
2022/10/01 12:32:25;;;;;;;9.52;1.80;;;16.50;99.90;;;;;;4933592;28;20458;-58
2022/10/01 12:35:01;;;;;;;13.82;2.72;;;16.40;99.90;;;;;;4956280;28;20065;-57
2022/10/01 12:37:35;;;;;;;8.65;2.42;;;16.50;99.90;;;;;;4959373;28;20034;-59
2022/10/01 12:40:42;;;;;;;12.15;2.30;;;16.40;99.90;;;;;;4958234;28;20120;-59
2022/10/01 12:43:55;;;;;;;15.45;2.60;;;16.40;99.90;;;;;;4946752;28;20367;-59
2022/10/01 12:47:04;;;;;;;11.00;2.83;;;16.40;99.90;;;;;;4928590;28;20515;-58
2022/10/01 12:49:40;;;;;;;15.60;2.70;;;16.40;99.90;;;;;;4896058;29;20119;-59
2022/10/01 12:52:24;;;;;;;10.95;2.67;;;16.60;99.90;;;;;;4946946;28;20530;-58
2022/10/01 12:54:58;;;;;;;11.63;2.78;;;16.80;99.90;;;;;;4950878;28;20035;-58
2022/10/01 12:57:51;;;;;;;10.32;2.28;;;16.80;99.90;;;;;;4959086;28;20043;-59
2022/10/01 13:00:21;;;;;;;21.08;3.28;;;17.00;99.90;;;;;;4953103;28;20063;-58
2022/10/01 13:03:17;;;;;;;11.50;2.70;;;17.00;99.90;;;;;;4955223;28;20037;-59
2022/10/01 13:06:29;;;;;;;14.23;2.60;;;17.00;99.90;;;;;;4952989;28;20042;-58
2022/10/01 13:09:15;;;;;;;8.88;2.13;;;17.10;99.90;;;;;;4952864;28;20088;-59
2022/10/01 13:12:14;;;;;;;11.57;2.28;;;17.00;99.90;;;;;;4952856;28;20044;-57
2022/10/01 13:14:43;;;;;;;12.48;2.45;;;17.10;99.90;;;;;;4953199;28;20062;-59
2022/10/01 13:17:37;;;;;;;12.90;2.85;;;17.20;99.90;;;;;;4953198;28;20046;-58